sensor_id;sensor_type;location;lat;lon;timestamp;P1;durP1;ratioP1;P2;durP2;ratioP2
73015;SDS011;61893;50.074;14.440;2022-07-22T00:01:31;16.05;;;11.35;;
73015;SDS011;61893;50.074;14.440;2022-07-22T00:04:25;12.70;;;11.13;;
73015;SDS011;61893;50.074;14.440;2022-07-22T00:07:07;13.90;;;11.30;;
73015;SDS011;61893;50.074;14.440;2022-07-22T00:09:41;15.23;;;11.57;;
73015;SDS011;61893;50.074;14.440;2022-07-22T00:12:10;15.93;;;11.35;;
73015;SDS011;61893;50.074;14.440;2022-07-22T00:14:36;15.50;;;11.50;;
73015;SDS011;61893;50.074;14.440;2022-07-22T00:17:31;14.60;;;11.73;;
73015;SDS011;61893;50.074;14.440;2022-07-22T00:20:04;13.30;;;11.15;;
73015;SDS011;61893;50.074;14.440;2022-07-22T00:23:09;13.75;;;11.35;;
73015;SDS011;61893;50.074;14.440;2022-07-22T00:25:48;12.82;;;10.73;;
73015;SDS011;61893;50.074;14.440;2022-07-22T00:28:14;15.48;;;11.43;;
73015;SDS011;61893;50.074;14.440;2022-07-22T00:30:51;15.40;;;11.05;;
73015;SDS011;61893;50.074;14.440;2022-07-22T00:36:06;16.95;;;11.23;;
73015;SDS011;61893;50.074;14.440;2022-07-22T00:38:49;15.25;;;10.90;;
73015;SDS011;61893;50.074;14.440;2022-07-22T00:41:48;16.75;;;11.18;;
73015;SDS011;61893;50.074;14.440;2022-07-22T00:44:17;14.27;;;11.35;;
73015;SDS011;61893;50.074;14.440;2022-07-22T00:46:47;14.13;;;10.77;;
73015;SDS011;61893;50.074;14.440;2022-07-22T00:49:19;13.68;;;10.70;;
73015;SDS011;61893;50.074;14.440;2022-07-22T00:51:46;17.08;;;11.80;;
73015;SDS011;61893;50.074;14.440;2022-07-22T00:54:29;14.63;;;10.80;;
73015;SDS011;61893;50.074;14.440;2022-07-22T00:57:13;12.18;;;10.25;;
73015;SDS011;61893;50.074;14.440;2022-07-22T00:59:40;15.55;;;10.20;;
73015;SDS011;61893;50.074;14.440;2022-07-22T01:02:12;20.98;;;13.40;;
73015;SDS011;61893;50.074;14.440;2022-07-22T01:04:38;15.48;;;10.35;;
73015;SDS011;61893;50.074;14.440;2022-07-22T01:07:05;13.95;;;11.57;;
73015;SDS011;61893;50.074;14.440;2022-07-22T01:09:31;15.60;;;11.05;;
73015;SDS011;61893;50.074;14.440;2022-07-22T01:12:10;13.38;;;11.00;;
73015;SDS011;61893;50.074;14.440;2022-07-22T01:14:49;15.77;;;11.45;;
73015;SDS011;61893;50.074;14.440;2022-07-22T01:17:15;15.43;;;10.80;;
73015;SDS011;61893;50.074;14.440;2022-07-22T01:19:45;13.43;;;10.90;;
73015;SDS011;61893;50.074;14.440;2022-07-22T01:22:18;14.43;;;11.47;;
73015;SDS011;61893;50.074;14.440;2022-07-22T01:24:44;12.68;;;10.57;;
73015;SDS011;61893;50.074;14.440;2022-07-22T01:27:10;14.23;;;10.98;;
73015;SDS011;61893;50.074;14.440;2022-07-22T01:29:36;15.57;;;11.73;;
73015;SDS011;61893;50.074;14.440;2022-07-22T01:32:03;14.77;;;10.40;;
73015;SDS011;61893;50.074;14.440;2022-07-22T01:34:34;16.17;;;11.32;;
73015;SDS011;61893;50.074;14.440;2022-07-22T01:37:00;16.27;;;11.65;;
73015;SDS011;61893;50.074;14.440;2022-07-22T01:39:27;13.80;;;11.65;;
73015;SDS011;61893;50.074;14.440;2022-07-22T01:41:54;14.75;;;11.32;;
73015;SDS011;61893;50.074;14.440;2022-07-22T01:44:23;16.10;;;11.23;;
73015;SDS011;61893;50.074;14.440;2022-07-22T01:46:50;16.83;;;11.82;;
73015;SDS011;61893;50.074;14.440;2022-07-22T01:49:16;13.45;;;11.02;;
73015;SDS011;61893;50.074;14.440;2022-07-22T01:51:42;19.70;;;11.18;;
73015;SDS011;61893;50.074;14.440;2022-07-22T01:54:14;13.57;;;11.88;;
73015;SDS011;61893;50.074;14.440;2022-07-22T01:56:40;18.17;;;12.15;;
73015;SDS011;61893;50.074;14.440;2022-07-22T01:59:49;15.05;;;11.57;;
73015;SDS011;61893;50.074;14.440;2022-07-22T02:02:14;15.30;;;11.57;;
73015;SDS011;61893;50.074;14.440;2022-07-22T02:04:46;14.50;;;11.85;;
73015;SDS011;61893;50.074;14.440;2022-07-22T02:07:15;19.25;;;11.98;;
73015;SDS011;61893;50.074;14.440;2022-07-22T02:09:41;15.80;;;11.88;;
73015;SDS011;61893;50.074;14.440;2022-07-22T02:12:07;13.35;;;10.75;;
73015;SDS011;61893;50.074;14.440;2022-07-22T02:14:34;16.05;;;11.50;;
73015;SDS011;61893;50.074;14.440;2022-07-22T02:17:06;13.68;;;11.30;;
73015;SDS011;61893;50.074;14.440;2022-07-22T02:19:48;14.73;;;11.65;;
73015;SDS011;61893;50.074;14.440;2022-07-22T02:22:14;16.63;;;11.45;;
73015;SDS011;61893;50.074;14.440;2022-07-22T02:24:53;13.45;;;11.85;;
73015;SDS011;61893;50.074;14.440;2022-07-22T02:27:21;14.27;;;11.52;;
73015;SDS011;61893;50.074;14.440;2022-07-22T02:30:15;14.32;;;11.50;;
73015;SDS011;61893;50.074;14.440;2022-07-22T02:32:44;13.18;;;11.13;;
73015;SDS011;61893;50.074;14.440;2022-07-22T02:35:14;15.48;;;12.10;;
73015;SDS011;61893;50.074;14.440;2022-07-22T02:37:46;15.57;;;11.70;;
73015;SDS011;61893;50.074;14.440;2022-07-22T02:40:12;15.77;;;12.10;;
73015;SDS011;61893;50.074;14.440;2022-07-22T02:42:49;15.82;;;12.05;;
73015;SDS011;61893;50.074;14.440;2022-07-22T02:45:21;16.48;;;12.35;;
73015;SDS011;61893;50.074;14.440;2022-07-22T02:48:28;14.40;;;12.07;;
73015;SDS011;61893;50.074;14.440;2022-07-22T02:51:00;15.93;;;12.55;;
73015;SDS011;61893;50.074;14.440;2022-07-22T02:53:29;16.73;;;12.55;;
73015;SDS011;61893;50.074;14.440;2022-07-22T02:55:55;16.55;;;12.48;;
73015;SDS011;61893;50.074;14.440;2022-07-22T02:58:40;15.90;;;12.98;;
73015;SDS011;61893;50.074;14.440;2022-07-22T03:01:20;16.33;;;11.98;;
73015;SDS011;61893;50.074;14.440;2022-07-22T03:03:56;15.68;;;11.95;;
73015;SDS011;61893;50.074;14.440;2022-07-22T03:06:26;18.05;;;12.82;;
73015;SDS011;61893;50.074;14.440;2022-07-22T03:08:52;17.38;;;11.77;;
73015;SDS011;61893;50.074;14.440;2022-07-22T03:11:18;14.48;;;12.57;;
73015;SDS011;61893;50.074;14.440;2022-07-22T03:13:44;16.35;;;12.00;;
73015;SDS011;61893;50.074;14.440;2022-07-22T03:16:11;15.68;;;12.63;;
73015;SDS011;61893;50.074;14.440;2022-07-22T03:18:37;15.02;;;11.77;;
73015;SDS011;61893;50.074;14.440;2022-07-22T03:21:09;15.27;;;12.13;;
73015;SDS011;61893;50.074;14.440;2022-07-22T03:23:35;17.70;;;12.23;;
73015;SDS011;61893;50.074;14.440;2022-07-22T03:26:02;18.33;;;12.48;;
73015;SDS011;61893;50.074;14.440;2022-07-22T03:28:34;17.00;;;12.60;;
73015;SDS011;61893;50.074;14.440;2022-07-22T03:31:00;16.63;;;12.68;;
73015;SDS011;61893;50.074;14.440;2022-07-22T03:33:34;15.82;;;11.95;;
73015;SDS011;61893;50.074;14.440;2022-07-22T03:36:20;15.02;;;12.15;;
73015;SDS011;61893;50.074;14.440;2022-07-22T03:38:54;13.55;;;11.70;;
73015;SDS011;61893;50.074;14.440;2022-07-22T03:41:22;14.60;;;12.20;;
73015;SDS011;61893;50.074;14.440;2022-07-22T03:43:49;17.58;;;12.18;;
73015;SDS011;61893;50.074;14.440;2022-07-22T03:46:16;18.52;;;13.00;;
73015;SDS011;61893;50.074;14.440;2022-07-22T03:48:42;16.63;;;13.32;;
73015;SDS011;61893;50.074;14.440;2022-07-22T03:51:09;15.25;;;12.77;;
73015;SDS011;61893;50.074;14.440;2022-07-22T03:53:35;17.20;;;12.43;;
73015;SDS011;61893;50.074;14.440;2022-07-22T03:56:07;16.23;;;12.00;;
73015;SDS011;61893;50.074;14.440;2022-07-22T03:59:00;18.30;;;12.45;;
73015;SDS011;61893;50.074;14.440;2022-07-22T04:01:39;20.02;;;13.75;;
73015;SDS011;61893;50.074;14.440;2022-07-22T04:04:29;15.90;;;12.15;;
73015;SDS011;61893;50.074;14.440;2022-07-22T04:06:56;15.52;;;12.50;;
73015;SDS011;61893;50.074;14.440;2022-07-22T04:09:24;14.18;;;11.77;;
73015;SDS011;61893;50.074;14.440;2022-07-22T04:12:10;15.50;;;12.20;;
73015;SDS011;61893;50.074;14.440;2022-07-22T04:14:43;14.35;;;11.82;;
73015;SDS011;61893;50.074;14.440;2022-07-22T04:17:19;18.20;;;13.40;;
73015;SDS011;61893;50.074;14.440;2022-07-22T04:20:02;16.27;;;11.90;;
73015;SDS011;61893;50.074;14.440;2022-07-22T04:22:29;13.82;;;11.73;;
73015;SDS011;61893;50.074;14.440;2022-07-22T04:24:58;14.93;;;11.75;;
73015;SDS011;61893;50.074;14.440;2022-07-22T04:27:35;15.05;;;11.65;;
73015;SDS011;61893;50.074;14.440;2022-07-22T04:30:02;14.23;;;12.02;;
73015;SDS011;61893;50.074;14.440;2022-07-22T04:32:30;15.57;;;12.32;;
73015;SDS011;61893;50.074;14.440;2022-07-22T04:34:59;19.58;;;12.05;;
73015;SDS011;61893;50.074;14.440;2022-07-22T04:37:53;14.02;;;12.18;;
73015;SDS011;61893;50.074;14.440;2022-07-22T04:40:21;15.48;;;11.30;;
73015;SDS011;61893;50.074;14.440;2022-07-22T04:42:53;16.80;;;12.15;;
73015;SDS011;61893;50.074;14.440;2022-07-22T04:45:18;15.75;;;12.05;;
73015;SDS011;61893;50.074;14.440;2022-07-22T04:47:50;16.70;;;12.02;;
73015;SDS011;61893;50.074;14.440;2022-07-22T04:50:18;17.05;;;11.45;;
73015;SDS011;61893;50.074;14.440;2022-07-22T04:52:49;15.02;;;12.07;;
73015;SDS011;61893;50.074;14.440;2022-07-22T04:56:24;15.82;;;10.98;;
73015;SDS011;61893;50.074;14.440;2022-07-22T04:58:59;16.23;;;12.32;;
73015;SDS011;61893;50.074;14.440;2022-07-22T05:01:34;15.60;;;11.52;;
73015;SDS011;61893;50.074;14.440;2022-07-22T05:04:19;16.17;;;11.43;;
73015;SDS011;61893;50.074;14.440;2022-07-22T05:06:45;15.32;;;12.30;;
73015;SDS011;61893;50.074;14.440;2022-07-22T05:09:14;14.23;;;11.35;;
73015;SDS011;61893;50.074;14.440;2022-07-22T05:11:40;15.35;;;11.93;;
73015;SDS011;61893;50.074;14.440;2022-07-22T05:14:13;15.50;;;11.30;;
73015;SDS011;61893;50.074;14.440;2022-07-22T05:16:55;14.20;;;11.82;;
73015;SDS011;61893;50.074;14.440;2022-07-22T05:19:21;16.50;;;11.57;;
73015;SDS011;61893;50.074;14.440;2022-07-22T05:21:50;15.93;;;11.52;;
73015;SDS011;61893;50.074;14.440;2022-07-22T05:25:00;17.50;;;11.52;;
73015;SDS011;61893;50.074;14.440;2022-07-22T05:27:26;16.83;;;11.73;;
73015;SDS011;61893;50.074;14.440;2022-07-22T05:29:52;16.95;;;11.43;;
73015;SDS011;61893;50.074;14.440;2022-07-22T05:32:31;17.63;;;11.88;;
73015;SDS011;61893;50.074;14.440;2022-07-22T05:34:57;14.45;;;11.25;;
73015;SDS011;61893;50.074;14.440;2022-07-22T05:38:20;15.13;;;11.73;;
73015;SDS011;61893;50.074;14.440;2022-07-22T05:41:01;15.98;;;11.52;;
73015;SDS011;61893;50.074;14.440;2022-07-22T05:43:56;15.00;;;11.95;;
73015;SDS011;61893;50.074;14.440;2022-07-22T05:46:27;16.92;;;11.30;;
73015;SDS011;61893;50.074;14.440;2022-07-22T05:49:49;15.88;;;11.40;;
73015;SDS011;61893;50.074;14.440;2022-07-22T05:55:08;16.80;;;11.85;;
73015;SDS011;61893;50.074;14.440;2022-07-22T05:58:01;14.68;;;11.75;;
73015;SDS011;61893;50.074;14.440;2022-07-22T06:01:04;16.33;;;11.98;;
73015;SDS011;61893;50.074;14.440;2022-07-22T06:03:36;16.73;;;12.18;;
73015;SDS011;61893;50.074;14.440;2022-07-22T06:06:03;16.38;;;11.65;;
73015;SDS011;61893;50.074;14.440;2022-07-22T06:09:08;16.13;;;11.68;;
73015;SDS011;61893;50.074;14.440;2022-07-22T06:11:52;15.38;;;11.82;;
73015;SDS011;61893;50.074;14.440;2022-07-22T06:15:09;15.98;;;11.23;;
73015;SDS011;61893;50.074;14.440;2022-07-22T06:18:07;17.13;;;12.05;;
73015;SDS011;61893;50.074;14.440;2022-07-22T06:20:42;15.95;;;11.73;;
73015;SDS011;61893;50.074;14.440;2022-07-22T06:23:09;16.10;;;11.60;;
73015;SDS011;61893;50.074;14.440;2022-07-22T06:25:35;17.33;;;11.68;;
73015;SDS011;61893;50.074;14.440;2022-07-22T06:28:01;14.95;;;11.63;;
73015;SDS011;61893;50.074;14.440;2022-07-22T06:30:28;17.63;;;11.57;;
73015;SDS011;61893;50.074;14.440;2022-07-22T06:33:33;15.68;;;11.75;;
73015;SDS011;61893;50.074;14.440;2022-07-22T06:36:00;16.75;;;11.18;;
73015;SDS011;61893;50.074;14.440;2022-07-22T06:38:26;17.40;;;11.50;;
73015;SDS011;61893;50.074;14.440;2022-07-22T06:40:56;18.55;;;12.70;;
73015;SDS011;61893;50.074;14.440;2022-07-22T06:43:22;15.40;;;11.82;;
73015;SDS011;61893;50.074;14.440;2022-07-22T06:45:55;15.52;;;11.07;;
73015;SDS011;61893;50.074;14.440;2022-07-22T06:48:42;16.15;;;11.60;;
73015;SDS011;61893;50.074;14.440;2022-07-22T06:51:46;18.45;;;12.23;;
73015;SDS011;61893;50.074;14.440;2022-07-22T06:54:40;21.83;;;11.68;;
73015;SDS011;61893;50.074;14.440;2022-07-22T06:57:15;14.25;;;10.82;;
73015;SDS011;61893;50.074;14.440;2022-07-22T06:59:51;15.15;;;11.30;;
73015;SDS011;61893;50.074;14.440;2022-07-22T07:02:38;23.58;;;11.60;;
73015;SDS011;61893;50.074;14.440;2022-07-22T07:05:11;18.02;;;11.10;;
73015;SDS011;61893;50.074;14.440;2022-07-22T07:07:43;12.93;;;11.07;;
73015;SDS011;61893;50.074;14.440;2022-07-22T07:10:17;17.55;;;11.40;;
73015;SDS011;61893;50.074;14.440;2022-07-22T07:13:01;14.70;;;11.27;;
73015;SDS011;61893;50.074;14.440;2022-07-22T07:15:48;16.20;;;11.27;;
73015;SDS011;61893;50.074;14.440;2022-07-22T07:23:55;15.23;;;10.68;;
73015;SDS011;61893;50.074;14.440;2022-07-22T07:26:42;14.20;;;11.85;;
73015;SDS011;61893;50.074;14.440;2022-07-22T07:29:19;13.70;;;11.10;;
73015;SDS011;61893;50.074;14.440;2022-07-22T07:32:15;13.77;;;10.77;;
73015;SDS011;61893;50.074;14.440;2022-07-22T07:35:30;14.15;;;10.23;;
73015;SDS011;61893;50.074;14.440;2022-07-22T07:38:18;11.95;;;9.63;;
73015;SDS011;61893;50.074;14.440;2022-07-22T07:40:46;13.27;;;10.07;;
73015;SDS011;61893;50.074;14.440;2022-07-22T07:43:12;13.52;;;9.50;;
73015;SDS011;61893;50.074;14.440;2022-07-22T07:45:38;12.25;;;9.77;;
73015;SDS011;61893;50.074;14.440;2022-07-22T07:48:05;13.30;;;10.13;;
73015;SDS011;61893;50.074;14.440;2022-07-22T07:50:32;13.07;;;10.20;;
73015;SDS011;61893;50.074;14.440;2022-07-22T07:53:01;12.27;;;9.75;;
73015;SDS011;61893;50.074;14.440;2022-07-22T07:55:31;13.15;;;10.90;;
73015;SDS011;61893;50.074;14.440;2022-07-22T07:58:03;15.00;;;10.02;;
73015;SDS011;61893;50.074;14.440;2022-07-22T08:00:29;13.40;;;9.88;;
73015;SDS011;61893;50.074;14.440;2022-07-22T08:02:58;19.13;;;10.73;;
73015;SDS011;61893;50.074;14.440;2022-07-22T08:05:25;13.43;;;10.23;;
73015;SDS011;61893;50.074;14.440;2022-07-22T08:07:53;14.63;;;10.15;;
73015;SDS011;61893;50.074;14.440;2022-07-22T08:10:23;13.82;;;10.10;;
73015;SDS011;61893;50.074;14.440;2022-07-22T08:12:52;13.50;;;10.45;;
73015;SDS011;61893;50.074;14.440;2022-07-22T08:15:30;11.73;;;9.60;;
73015;SDS011;61893;50.074;14.440;2022-07-22T08:18:01;12.75;;;9.25;;
73015;SDS011;61893;50.074;14.440;2022-07-22T08:20:28;11.82;;;9.18;;
73015;SDS011;61893;50.074;14.440;2022-07-22T08:22:55;13.63;;;9.57;;
73015;SDS011;61893;50.074;14.440;2022-07-22T08:25:22;16.05;;;9.68;;
73015;SDS011;61893;50.074;14.440;2022-07-22T08:27:51;13.02;;;8.60;;
73015;SDS011;61893;50.074;14.440;2022-07-22T08:30:18;12.05;;;8.25;;
73015;SDS011;61893;50.074;14.440;2022-07-22T08:32:46;14.23;;;8.40;;
73015;SDS011;61893;50.074;14.440;2022-07-22T08:35:13;17.13;;;8.45;;
73015;SDS011;61893;50.074;14.440;2022-07-22T08:37:44;11.45;;;8.55;;
73015;SDS011;61893;50.074;14.440;2022-07-22T08:40:15;9.07;;;7.43;;
73015;SDS011;61893;50.074;14.440;2022-07-22T08:42:46;9.40;;;7.85;;
73015;SDS011;61893;50.074;14.440;2022-07-22T08:45:12;9.30;;;7.57;;
73015;SDS011;61893;50.074;14.440;2022-07-22T08:47:45;10.57;;;7.78;;
73015;SDS011;61893;50.074;14.440;2022-07-22T08:50:16;8.98;;;7.65;;
73015;SDS011;61893;50.074;14.440;2022-07-22T08:52:45;10.13;;;7.30;;
73015;SDS011;61893;50.074;14.440;2022-07-22T08:55:12;8.48;;;6.90;;
73015;SDS011;61893;50.074;14.440;2022-07-22T08:57:43;8.32;;;6.70;;
73015;SDS011;61893;50.074;14.440;2022-07-22T09:00:11;11.68;;;6.95;;
73015;SDS011;61893;50.074;14.440;2022-07-22T09:02:40;6.93;;;6.13;;
73015;SDS011;61893;50.074;14.440;2022-07-22T09:05:13;8.02;;;6.00;;
73015;SDS011;61893;50.074;14.440;2022-07-22T09:07:44;6.82;;;5.80;;
73015;SDS011;61893;50.074;14.440;2022-07-22T09:10:18;7.38;;;5.63;;
73015;SDS011;61893;50.074;14.440;2022-07-22T09:12:54;8.73;;;5.88;;
73015;SDS011;61893;50.074;14.440;2022-07-22T09:15:32;7.10;;;5.38;;
73015;SDS011;61893;50.074;14.440;2022-07-22T09:18:04;7.13;;;5.18;;
73015;SDS011;61893;50.074;14.440;2022-07-22T09:20:32;8.38;;;5.65;;
73015;SDS011;61893;50.074;14.440;2022-07-22T09:23:11;6.28;;;5.20;;
73015;SDS011;61893;50.074;14.440;2022-07-22T09:25:46;12.77;;;5.07;;
73015;SDS011;61893;50.074;14.440;2022-07-22T09:28:22;7.25;;;4.93;;
73015;SDS011;61893;50.074;14.440;2022-07-22T09:30:53;9.30;;;5.13;;
73015;SDS011;61893;50.074;14.440;2022-07-22T09:33:21;8.15;;;4.80;;
73015;SDS011;61893;50.074;14.440;2022-07-22T09:36:27;5.70;;;4.95;;
73015;SDS011;61893;50.074;14.440;2022-07-22T09:39:15;6.13;;;4.70;;
73015;SDS011;61893;50.074;14.440;2022-07-22T09:42:06;6.45;;;4.60;;
73015;SDS011;61893;50.074;14.440;2022-07-22T09:44:35;7.95;;;5.03;;
73015;SDS011;61893;50.074;14.440;2022-07-22T09:47:04;5.93;;;4.50;;
73015;SDS011;61893;50.074;14.440;2022-07-22T09:49:34;8.50;;;5.20;;
73015;SDS011;61893;50.074;14.440;2022-07-22T09:52:13;7.80;;;4.82;;
73015;SDS011;61893;50.074;14.440;2022-07-22T09:55:00;7.32;;;5.00;;
73015;SDS011;61893;50.074;14.440;2022-07-22T09:57:28;5.82;;;5.05;;
73015;SDS011;61893;50.074;14.440;2022-07-22T09:59:55;5.65;;;4.85;;
73015;SDS011;61893;50.074;14.440;2022-07-22T10:02:21;6.35;;;5.05;;
73015;SDS011;61893;50.074;14.440;2022-07-22T10:04:48;7.53;;;5.18;;
73015;SDS011;61893;50.074;14.440;2022-07-22T10:07:16;8.90;;;5.22;;
73015;SDS011;61893;50.074;14.440;2022-07-22T10:09:43;6.30;;;5.13;;
73015;SDS011;61893;50.074;14.440;2022-07-22T10:12:11;7.80;;;5.18;;
73015;SDS011;61893;50.074;14.440;2022-07-22T10:14:41;6.78;;;4.90;;
73015;SDS011;61893;50.074;14.440;2022-07-22T10:17:55;7.63;;;4.97;;
73015;SDS011;61893;50.074;14.440;2022-07-22T10:20:24;9.73;;;5.60;;
73015;SDS011;61893;50.074;14.440;2022-07-22T10:22:59;9.88;;;7.38;;
73015;SDS011;61893;50.074;14.440;2022-07-22T10:25:39;6.88;;;5.65;;
73015;SDS011;61893;50.074;14.440;2022-07-22T10:28:24;7.22;;;5.85;;
73015;SDS011;61893;50.074;14.440;2022-07-22T10:31:17;8.27;;;6.28;;
73015;SDS011;61893;50.074;14.440;2022-07-22T10:33:44;9.15;;;6.25;;
73015;SDS011;61893;50.074;14.440;2022-07-22T10:36:12;9.77;;;6.45;;
73015;SDS011;61893;50.074;14.440;2022-07-22T10:38:40;9.82;;;6.53;;
73015;SDS011;61893;50.074;14.440;2022-07-22T10:41:33;7.80;;;6.03;;
73015;SDS011;61893;50.074;14.440;2022-07-22T10:44:14;9.63;;;6.43;;
73015;SDS011;61893;50.074;14.440;2022-07-22T10:47:14;7.72;;;6.35;;
73015;SDS011;61893;50.074;14.440;2022-07-22T10:49:43;7.65;;;6.00;;
73015;SDS011;61893;50.074;14.440;2022-07-22T10:52:14;9.02;;;6.07;;
73015;SDS011;61893;50.074;14.440;2022-07-22T10:55:20;6.45;;;5.50;;
73015;SDS011;61893;50.074;14.440;2022-07-22T10:57:48;6.18;;;5.57;;
73015;SDS011;61893;50.074;14.440;2022-07-22T11:00:17;7.22;;;5.78;;
73015;SDS011;61893;50.074;14.440;2022-07-22T11:03:00;6.80;;;5.57;;
73015;SDS011;61893;50.074;14.440;2022-07-22T11:05:27;6.97;;;5.53;;
73015;SDS011;61893;50.074;14.440;2022-07-22T11:08:09;8.77;;;5.97;;
73015;SDS011;61893;50.074;14.440;2022-07-22T11:10:46;6.97;;;5.30;;
73015;SDS011;61893;50.074;14.440;2022-07-22T11:13:35;11.93;;;6.05;;
73015;SDS011;61893;50.074;14.440;2022-07-22T11:16:16;6.10;;;5.50;;
73015;SDS011;61893;50.074;14.440;2022-07-22T11:18:48;7.43;;;6.00;;
73015;SDS011;61893;50.074;14.440;2022-07-22T11:21:16;7.80;;;5.97;;
73015;SDS011;61893;50.074;14.440;2022-07-22T11:23:49;8.60;;;5.90;;
73015;SDS011;61893;50.074;14.440;2022-07-22T11:26:19;7.25;;;5.75;;
73015;SDS011;61893;50.074;14.440;2022-07-22T11:28:51;9.10;;;5.82;;
73015;SDS011;61893;50.074;14.440;2022-07-22T11:34:42;8.27;;;4.75;;
73015;SDS011;61893;50.074;14.440;2022-07-22T11:37:13;8.77;;;4.95;;
73015;SDS011;61893;50.074;14.440;2022-07-22T11:39:41;7.35;;;5.18;;
73015;SDS011;61893;50.074;14.440;2022-07-22T11:42:11;7.80;;;5.13;;
73015;SDS011;61893;50.074;14.440;2022-07-22T11:44:40;7.15;;;4.93;;
73015;SDS011;61893;50.074;14.440;2022-07-22T11:47:11;7.25;;;4.57;;
73015;SDS011;61893;50.074;14.440;2022-07-22T11:49:44;6.60;;;4.85;;
73015;SDS011;61893;50.074;14.440;2022-07-22T11:52:12;8.80;;;5.10;;
73015;SDS011;61893;50.074;14.440;2022-07-22T11:54:41;7.07;;;5.43;;
73015;SDS011;61893;50.074;14.440;2022-07-22T11:57:39;6.70;;;5.18;;
73015;SDS011;61893;50.074;14.440;2022-07-22T12:00:16;5.72;;;5.13;;
73015;SDS011;61893;50.074;14.440;2022-07-22T12:02:54;7.90;;;4.45;;
73015;SDS011;61893;50.074;14.440;2022-07-22T12:05:21;5.63;;;5.05;;
73015;SDS011;61893;50.074;14.440;2022-07-22T12:08:08;9.50;;;4.55;;
73015;SDS011;61893;50.074;14.440;2022-07-22T12:10:37;6.40;;;4.50;;
73015;SDS011;61893;50.074;14.440;2022-07-22T12:13:12;7.35;;;4.80;;
73015;SDS011;61893;50.074;14.440;2022-07-22T12:15:41;7.70;;;4.95;;
73015;SDS011;61893;50.074;14.440;2022-07-22T12:18:17;6.45;;;4.68;;
73015;SDS011;61893;50.074;14.440;2022-07-22T12:20:49;6.00;;;4.55;;
73015;SDS011;61893;50.074;14.440;2022-07-22T12:23:18;7.00;;;5.28;;
73015;SDS011;61893;50.074;14.440;2022-07-22T12:25:51;8.65;;;4.50;;
73015;SDS011;61893;50.074;14.440;2022-07-22T12:28:25;8.32;;;4.25;;
73015;SDS011;61893;50.074;14.440;2022-07-22T12:30:52;6.03;;;4.25;;
73015;SDS011;61893;50.074;14.440;2022-07-22T12:33:22;8.55;;;4.78;;
73015;SDS011;61893;50.074;14.440;2022-07-22T12:36:06;5.80;;;4.00;;
73015;SDS011;61893;50.074;14.440;2022-07-22T12:38:33;5.13;;;4.10;;
73015;SDS011;61893;50.074;14.440;2022-07-22T12:44:14;5.25;;;4.40;;
73015;SDS011;61893;50.074;14.440;2022-07-22T12:46:48;5.82;;;4.25;;
73015;SDS011;61893;50.074;14.440;2022-07-22T12:49:21;11.48;;;4.53;;
73015;SDS011;61893;50.074;14.440;2022-07-22T12:52:06;8.25;;;4.57;;
73015;SDS011;61893;50.074;14.440;2022-07-22T12:54:34;6.80;;;4.30;;
73015;SDS011;61893;50.074;14.440;2022-07-22T12:57:02;6.43;;;4.57;;
73015;SDS011;61893;50.074;14.440;2022-07-22T12:59:28;5.80;;;4.70;;
73015;SDS011;61893;50.074;14.440;2022-07-22T13:01:55;5.63;;;4.25;;
73015;SDS011;61893;50.074;14.440;2022-07-22T13:04:21;4.30;;;3.80;;
73015;SDS011;61893;50.074;14.440;2022-07-22T13:06:47;7.25;;;4.35;;
73015;SDS011;61893;50.074;14.440;2022-07-22T13:09:21;6.47;;;4.70;;
73015;SDS011;61893;50.074;14.440;2022-07-22T13:11:47;5.28;;;4.40;;
73015;SDS011;61893;50.074;14.440;2022-07-22T13:14:28;5.65;;;4.60;;
73015;SDS011;61893;50.074;14.440;2022-07-22T13:16:55;5.28;;;4.15;;
73015;SDS011;61893;50.074;14.440;2022-07-22T13:19:28;5.88;;;4.60;;
73015;SDS011;61893;50.074;14.440;2022-07-22T13:21:59;6.43;;;4.10;;
73015;SDS011;61893;50.074;14.440;2022-07-22T13:24:26;5.53;;;4.30;;
73015;SDS011;61893;50.074;14.440;2022-07-22T13:26:52;5.40;;;4.00;;
73015;SDS011;61893;50.074;14.440;2022-07-22T13:29:20;8.15;;;4.03;;
73015;SDS011;61893;50.074;14.440;2022-07-22T13:31:46;6.22;;;4.72;;
73015;SDS011;61893;50.074;14.440;2022-07-22T13:34:22;5.10;;;4.30;;
73015;SDS011;61893;50.074;14.440;2022-07-22T13:36:52;6.95;;;4.65;;
73015;SDS011;61893;50.074;14.440;2022-07-22T13:39:21;6.07;;;4.90;;
73015;SDS011;61893;50.074;14.440;2022-07-22T13:41:48;6.05;;;4.40;;
73015;SDS011;61893;50.074;14.440;2022-07-22T13:44:19;4.85;;;4.45;;
73015;SDS011;61893;50.074;14.440;2022-07-22T13:46:51;6.45;;;4.30;;
73015;SDS011;61893;50.074;14.440;2022-07-22T13:49:46;5.93;;;4.90;;
73015;SDS011;61893;50.074;14.440;2022-07-22T13:52:16;6.97;;;5.05;;
73015;SDS011;61893;50.074;14.440;2022-07-22T13:54:49;6.68;;;4.35;;
73015;SDS011;61893;50.074;14.440;2022-07-22T13:57:19;7.47;;;4.47;;
73015;SDS011;61893;50.074;14.440;2022-07-22T13:59:58;6.07;;;4.50;;
73015;SDS011;61893;50.074;14.440;2022-07-22T14:02:38;6.72;;;4.47;;
73015;SDS011;61893;50.074;14.440;2022-07-22T14:05:41;8.15;;;4.63;;
73015;SDS011;61893;50.074;14.440;2022-07-22T14:08:18;6.78;;;4.45;;
73015;SDS011;61893;50.074;14.440;2022-07-22T14:10:48;4.97;;;4.20;;
73015;SDS011;61893;50.074;14.440;2022-07-22T14:13:33;6.60;;;4.35;;
73015;SDS011;61893;50.074;14.440;2022-07-22T14:16:02;8.43;;;4.88;;
73015;SDS011;61893;50.074;14.440;2022-07-22T14:19:08;6.45;;;4.50;;
73015;SDS011;61893;50.074;14.440;2022-07-22T14:21:41;8.57;;;4.78;;
73015;SDS011;61893;50.074;14.440;2022-07-22T14:24:11;8.70;;;4.50;;
73015;SDS011;61893;50.074;14.440;2022-07-22T14:26:38;7.15;;;4.55;;
73015;SDS011;61893;50.074;14.440;2022-07-22T14:29:29;5.30;;;4.32;;
73015;SDS011;61893;50.074;14.440;2022-07-22T14:31:56;10.75;;;4.70;;
73015;SDS011;61893;50.074;14.440;2022-07-22T14:34:24;5.80;;;4.50;;
73015;SDS011;61893;50.074;14.440;2022-07-22T14:36:53;7.45;;;4.75;;
73015;SDS011;61893;50.074;14.440;2022-07-22T14:39:19;6.20;;;4.68;;
73015;SDS011;61893;50.074;14.440;2022-07-22T14:41:46;8.38;;;4.60;;
73015;SDS011;61893;50.074;14.440;2022-07-22T14:44:12;6.68;;;4.35;;
73015;SDS011;61893;50.074;14.440;2022-07-22T14:46:39;5.80;;;4.43;;
73015;SDS011;61893;50.074;14.440;2022-07-22T14:49:08;5.57;;;4.30;;
73015;SDS011;61893;50.074;14.440;2022-07-22T14:51:34;4.93;;;3.97;;
73015;SDS011;61893;50.074;14.440;2022-07-22T14:54:06;5.82;;;4.10;;
73015;SDS011;61893;50.074;14.440;2022-07-22T14:56:35;5.25;;;4.60;;
73015;SDS011;61893;50.074;14.440;2022-07-22T14:59:01;5.28;;;4.03;;
73015;SDS011;61893;50.074;14.440;2022-07-22T15:01:27;5.78;;;4.50;;
73015;SDS011;61893;50.074;14.440;2022-07-22T15:04:14;8.75;;;4.50;;
73015;SDS011;61893;50.074;14.440;2022-07-22T15:06:41;5.10;;;4.50;;
73015;SDS011;61893;50.074;14.440;2022-07-22T15:09:25;6.68;;;4.38;;
73015;SDS011;61893;50.074;14.440;2022-07-22T15:11:52;5.28;;;4.72;;
73015;SDS011;61893;50.074;14.440;2022-07-22T15:14:19;6.93;;;3.92;;
73015;SDS011;61893;50.074;14.440;2022-07-22T15:16:58;5.03;;;3.92;;
73015;SDS011;61893;50.074;14.440;2022-07-22T15:19:24;7.72;;;4.30;;
73015;SDS011;61893;50.074;14.440;2022-07-22T15:21:50;7.53;;;4.30;;